Airfield :
LOGIN :

Register | Disclaimer

   EN    FR    IT 

 










Legend :    VFR   Marginal VFR   IFR   Intensive IFR   Very Intensive IFR
Visi :
Ceiling :
>= 8 km
>= 3000ft
5 to 8 km
1000 to 3000 ft
1500m to 5 km
500 to 1000 ft
800 to 1500m
200 to 500 ft
< 800m
< 200 ft
Symbols :   Thunderstorms  Fog  Heavy snow  Heavy precipitations  Wind > 20 kt
SIGMETs :     Misc.  Thunderstorms  Icing  Turbulence  Mountain Waves  Volcanic Ashes






- Airport Elevation : 266 ft
- IATA code : NCL


EGNT - Newcastle

CURRENT METAR :
  • 191820Z 18008KT 150V210 9999 BKN022 06/05 Q1004

EXPIRED METARs :
  • 191750Z 18009KT 150V210 9999 BKN020 06/05 Q1004
  • 191720Z 18009KT 160V220 9999 BKN020 06/04 Q1005
  • 191650Z 19010KT 140V220 9999 BKN020 06/04 Q1005
  • 191620Z 20009KT 160V240 9999 SCT020 06/04 Q1006
  • 191550Z 20010KT 170V240 9999 SCT020 06/04 Q1006
  • 191520Z 20009KT 160V230 9999 FEW020 06/03 Q1007

TAF TAF EGNT
Valid from the 19 at 18:00 until the 20 at 18:00 UTC


191655Z 1918/2018 21012KT 9999 FEW015 SCT022
TEMPO 1918/2013 6000 -RA BKN014
PROB30
TEMPO 1918/2009 23015G25KT
PROB30
TEMPO 2009/2013 4000 +RA BKN008
BECMG 2010/2013 28018G28KT
PROB30
TEMPO 2013/2018 6000 SHRA -SHRASN
ATIS : +44 191 214 3400



MET'MAP, your aeronautical weather chart ! - Copyright ORBIFLY December 2007 - Disclaimer

ORBIFLY MET'MAP TEAM :

Programming & Development : Alexandra Zaïnal
Concept & original design : Baudouin d'Aumeries
Assistance for programming : Marc-Olivier Méhu
Technical & hardware support : Manuel Goepfert

Contact : metmap@orbifly.com




SOURCES & CREDITS :

   NOAA